sensor_id;sensor_type;location;lat;lon;timestamp;pressure;altitude;pressure_sealevel;temperature;humidity
45813;BME280;31519;45.408;10.962;2023-07-13T00:01:16;100608.63;;;26.56;65.64
45813;BME280;31519;45.408;10.962;2023-07-13T00:03:45;100630.06;;;26.58;66.15
45813;BME280;31519;45.408;10.962;2023-07-13T00:06:14;100598.47;;;26.57;65.84
45813;BME280;31519;45.408;10.962;2023-07-13T00:08:42;100534.34;;;26.00;69.29
45813;BME280;31519;45.408;10.962;2023-07-13T00:11:11;100492.97;;;26.63;66.61
45813;BME280;31519;45.408;10.962;2023-07-13T00:13:40;100467.97;;;27.14;64.80
45813;BME280;31519;45.408;10.962;2023-07-13T00:16:09;100443.44;;;26.87;65.25
45813;BME280;31519;45.408;10.962;2023-07-13T00:18:39;100423.06;;;27.35;64.71
45813;BME280;31519;45.408;10.962;2023-07-13T00:21:08;100391.72;;;27.59;62.27
45813;BME280;31519;45.408;10.962;2023-07-13T00:23:37;100366.81;;;27.73;60.61
45813;BME280;31519;45.408;10.962;2023-07-13T00:26:08;100349.50;;;27.96;59.38
45813;BME280;31519;45.408;10.962;2023-07-13T00:28:38;100341.13;;;28.03;57.26
45813;BME280;31519;45.408;10.962;2023-07-13T00:31:08;100333.41;;;27.98;57.14
45813;BME280;31519;45.408;10.962;2023-07-13T00:33:37;100318.28;;;28.10;55.69
45813;BME280;31519;45.408;10.962;2023-07-13T00:36:06;100326.41;;;27.97;54.78
45813;BME280;31519;45.408;10.962;2023-07-13T00:38:35;100313.13;;;27.96;53.24
45813;BME280;31519;45.408;10.962;2023-07-13T00:41:04;100297.06;;;27.82;53.47
45813;BME280;31519;45.408;10.962;2023-07-13T00:43:33;100278.06;;;27.91;51.47
45813;BME280;31519;45.408;10.962;2023-07-13T00:46:26;100281.63;;;27.71;51.29
45813;BME280;31519;45.408;10.962;2023-07-13T00:48:51;100280.03;;;27.90;50.29
45813;BME280;31519;45.408;10.962;2023-07-13T00:51:24;100286.78;;;27.86;49.79
45813;BME280;31519;45.408;10.962;2023-07-13T00:53:54;100298.88;;;27.68;50.76
45813;BME280;31519;45.408;10.962;2023-07-13T00:56:25;100310.69;;;27.65;50.69
45813;BME280;31519;45.408;10.962;2023-07-13T00:58:53;100316.56;;;28.00;49.57
45813;BME280;31519;45.408;10.962;2023-07-13T01:01:22;100304.41;;;27.85;50.12
45813;BME280;31519;45.408;10.962;2023-07-13T01:03:51;100303.91;;;27.90;49.76
45813;BME280;31519;45.408;10.962;2023-07-13T01:06:19;100310.31;;;27.99;49.71
45813;BME280;31519;45.408;10.962;2023-07-13T01:08:48;100311.34;;;27.89;50.09
45813;BME280;31519;45.408;10.962;2023-07-13T01:11:20;100305.84;;;27.89;50.09
45813;BME280;31519;45.408;10.962;2023-07-13T01:13:50;100321.09;;;28.06;49.46
45813;BME280;31519;45.408;10.962;2023-07-13T01:16:24;100334.78;;;27.90;49.70
45813;BME280;31519;45.408;10.962;2023-07-13T01:18:54;100348.59;;;27.67;50.82
45813;BME280;31519;45.408;10.962;2023-07-13T01:21:27;100353.91;;;27.74;50.15
45813;BME280;31519;45.408;10.962;2023-07-13T01:23:56;100349.72;;;27.30;51.56
45813;BME280;31519;45.408;10.962;2023-07-13T01:26:24;100354.88;;;27.84;50.59
45813;BME280;31519;45.408;10.962;2023-07-13T01:28:53;100367.38;;;28.01;49.78
45813;BME280;31519;45.408;10.962;2023-07-13T01:31:21;100367.78;;;27.24;51.45
45813;BME280;31519;45.408;10.962;2023-07-13T01:33:50;100377.09;;;26.83;52.92
45813;BME280;31519;45.408;10.962;2023-07-13T01:36:21;100369.75;;;27.04;52.86
45813;BME280;31519;45.408;10.962;2023-07-13T01:38:49;100372.94;;;27.61;52.33
45813;BME280;31519;45.408;10.962;2023-07-13T01:41:18;100386.53;;;27.65;51.54
45813;BME280;31519;45.408;10.962;2023-07-13T01:43:46;100377.09;;;27.07;52.53
45813;BME280;31519;45.408;10.962;2023-07-13T01:46:15;100375.06;;;27.11;52.66
45813;BME280;31519;45.408;10.962;2023-07-13T01:48:50;100374.31;;;27.89;50.44
45813;BME280;31519;45.408;10.962;2023-07-13T01:51:20;100379.47;;;28.03;50.77
45813;BME280;31519;45.408;10.962;2023-07-13T01:53:48;100375.22;;;27.83;51.08
45813;BME280;31519;45.408;10.962;2023-07-13T01:56:18;100386.81;;;27.90;51.05
45813;BME280;31519;45.408;10.962;2023-07-13T01:58:47;100383.78;;;27.85;51.45
45813;BME280;31519;45.408;10.962;2023-07-13T02:01:15;100390.47;;;27.64;53.10
45813;BME280;31519;45.408;10.962;2023-07-13T02:03:44;100394.06;;;27.61;53.37
45813;BME280;31519;45.408;10.962;2023-07-13T02:06:13;100398.38;;;27.78;52.70
45813;BME280;31519;45.408;10.962;2023-07-13T02:08:41;100409.09;;;27.72;54.16
45813;BME280;31519;45.408;10.962;2023-07-13T02:11:11;100399.97;;;27.36;56.15
45813;BME280;31519;45.408;10.962;2023-07-13T02:13:40;100397.81;;;27.47;56.07
45813;BME280;31519;45.408;10.962;2023-07-13T02:16:09;100396.69;;;27.25;56.92
45813;BME280;31519;45.408;10.962;2023-07-13T02:18:38;100401.13;;;27.39;57.51
45813;BME280;31519;45.408;10.962;2023-07-13T02:21:07;100383.81;;;27.45;58.15
45813;BME280;31519;45.408;10.962;2023-07-13T02:23:35;100388.13;;;27.43;58.68
45813;BME280;31519;45.408;10.962;2023-07-13T02:26:04;100397.28;;;26.93;60.44
45813;BME280;31519;45.408;10.962;2023-07-13T02:28:32;100403.50;;;27.37;59.13
45813;BME280;31519;45.408;10.962;2023-07-13T02:31:07;100406.50;;;27.42;58.98
45813;BME280;31519;45.408;10.962;2023-07-13T02:33:36;100403.59;;;27.10;60.24
45813;BME280;31519;45.408;10.962;2023-07-13T02:36:05;100393.47;;;27.30;59.92
45813;BME280;31519;45.408;10.962;2023-07-13T02:38:33;100398.34;;;27.19;59.44
45813;BME280;31519;45.408;10.962;2023-07-13T02:41:03;100404.94;;;27.02;60.38
45813;BME280;31519;45.408;10.962;2023-07-13T02:43:32;100409.56;;;27.05;60.28
45813;BME280;31519;45.408;10.962;2023-07-13T02:46:01;100409.19;;;27.26;59.39
45813;BME280;31519;45.408;10.962;2023-07-13T02:48:36;100409.28;;;27.19;60.01
45813;BME280;31519;45.408;10.962;2023-07-13T02:51:06;100404.59;;;26.73;61.33
45813;BME280;31519;45.408;10.962;2023-07-13T02:53:35;100402.09;;;26.59;61.59
45813;BME280;31519;45.408;10.962;2023-07-13T02:56:04;100415.28;;;26.64;61.02
45813;BME280;31519;45.408;10.962;2023-07-13T02:58:33;100416.81;;;26.41;61.35
45813;BME280;31519;45.408;10.962;2023-07-13T03:01:08;100417.03;;;26.27;62.37
45813;BME280;31519;45.408;10.962;2023-07-13T03:03:37;100426.19;;;26.40;61.83
45813;BME280;31519;45.408;10.962;2023-07-13T03:06:06;100429.47;;;26.55;61.92
45813;BME280;31519;45.408;10.962;2023-07-13T03:08:57;100430.13;;;26.63;61.43
45813;BME280;31519;45.408;10.962;2023-07-13T03:11:26;100425.09;;;26.88;60.67
45813;BME280;31519;45.408;10.962;2023-07-13T03:14:03;100435.28;;;26.84;60.13
45813;BME280;31519;45.408;10.962;2023-07-13T03:16:35;100448.28;;;26.76;60.78
45813;BME280;31519;45.408;10.962;2023-07-13T03:19:04;100450.09;;;26.86;60.54
45813;BME280;31519;45.408;10.962;2023-07-13T03:21:33;100455.13;;;26.38;61.97
45813;BME280;31519;45.408;10.962;2023-07-13T03:24:02;100455.50;;;26.06;63.96
45813;BME280;31519;45.408;10.962;2023-07-13T03:26:30;100458.63;;;26.38;63.43
45813;BME280;31519;45.408;10.962;2023-07-13T03:28:59;100464.41;;;26.44;63.21
45813;BME280;31519;45.408;10.962;2023-07-13T03:31:28;100476.91;;;26.11;64.36
45813;BME280;31519;45.408;10.962;2023-07-13T03:33:57;100473.63;;;25.93;65.10
45813;BME280;31519;45.408;10.962;2023-07-13T03:36:28;100471.91;;;25.31;67.45
45813;BME280;31519;45.408;10.962;2023-07-13T03:39:00;100483.94;;;25.78;66.66
45813;BME280;31519;45.408;10.962;2023-07-13T03:41:38;100486.44;;;25.62;67.49
45813;BME280;31519;45.408;10.962;2023-07-13T03:44:06;100485.28;;;25.59;67.65
45813;BME280;31519;45.408;10.962;2023-07-13T03:46:35;100479.91;;;25.49;67.88
45813;BME280;31519;45.408;10.962;2023-07-13T03:49:05;100485.63;;;25.65;67.60
45813;BME280;31519;45.408;10.962;2023-07-13T03:51:34;100493.03;;;26.59;63.41
45813;BME280;31519;45.408;10.962;2023-07-13T03:54:02;100485.88;;;26.69;62.65
45813;BME280;31519;45.408;10.962;2023-07-13T03:56:32;100496.84;;;26.38;62.86
45813;BME280;31519;45.408;10.962;2023-07-13T03:59:03;100495.13;;;26.21;64.05
45813;BME280;31519;45.408;10.962;2023-07-13T04:01:32;100492.44;;;25.84;65.65
45813;BME280;31519;45.408;10.962;2023-07-13T04:04:01;100489.38;;;26.12;64.86
45813;BME280;31519;45.408;10.962;2023-07-13T04:06:32;100496.91;;;26.35;63.66
45813;BME280;31519;45.408;10.962;2023-07-13T04:09:01;100494.38;;;26.74;62.20
45813;BME280;31519;45.408;10.962;2023-07-13T04:11:31;100487.09;;;26.91;60.67
45813;BME280;31519;45.408;10.962;2023-07-13T04:14:00;100490.69;;;27.11;59.08
45813;BME280;31519;45.408;10.962;2023-07-13T04:16:29;100491.25;;;27.46;58.09
45813;BME280;31519;45.408;10.962;2023-07-13T04:18:58;100486.53;;;27.50;59.52
45813;BME280;31519;45.408;10.962;2023-07-13T04:21:30;100498.59;;;27.52;59.77
45813;BME280;31519;45.408;10.962;2023-07-13T04:23:59;100501.78;;;27.47;60.36
45813;BME280;31519;45.408;10.962;2023-07-13T04:26:28;100494.53;;;27.37;60.62
45813;BME280;31519;45.408;10.962;2023-07-13T04:28:57;100496.72;;;27.69;59.26
45813;BME280;31519;45.408;10.962;2023-07-13T04:31:25;100495.53;;;27.47;59.46
45813;BME280;31519;45.408;10.962;2023-07-13T04:33:54;100498.22;;;27.50;58.69
45813;BME280;31519;45.408;10.962;2023-07-13T04:36:23;100502.41;;;27.58;58.03
45813;BME280;31519;45.408;10.962;2023-07-13T04:38:54;100513.91;;;27.46;58.17
45813;BME280;31519;45.408;10.962;2023-07-13T04:41:23;100503.41;;;27.45;57.80
45813;BME280;31519;45.408;10.962;2023-07-13T04:43:52;100504.91;;;27.26;57.71
45813;BME280;31519;45.408;10.962;2023-07-13T04:46:24;100507.66;;;27.49;57.38
45813;BME280;31519;45.408;10.962;2023-07-13T04:48:53;100520.72;;;27.38;57.09
45813;BME280;31519;45.408;10.962;2023-07-13T04:51:22;100521.09;;;27.63;56.75
45813;BME280;31519;45.408;10.962;2023-07-13T04:53:50;100529.25;;;26.94;57.60
45813;BME280;31519;45.408;10.962;2023-07-13T04:56:25;100526.72;;;27.06;57.90
45813;BME280;31519;45.408;10.962;2023-07-13T04:58:53;100517.81;;;26.45;58.91
45813;BME280;31519;45.408;10.962;2023-07-13T05:01:22;100510.13;;;26.94;57.78
45813;BME280;31519;45.408;10.962;2023-07-13T05:03:50;100520.66;;;27.18;57.19
45813;BME280;31519;45.408;10.962;2023-07-13T05:06:19;100531.19;;;26.39;59.91
45813;BME280;31519;45.408;10.962;2023-07-13T05:08:47;100538.75;;;26.82;58.60
45813;BME280;31519;45.408;10.962;2023-07-13T05:11:17;100537.81;;;26.96;57.93
45813;BME280;31519;45.408;10.962;2023-07-13T05:13:45;100534.31;;;27.18;57.24
45813;BME280;31519;45.408;10.962;2023-07-13T05:16:14;100522.25;;;27.39;56.68
45813;BME280;31519;45.408;10.962;2023-07-13T05:18:43;100520.22;;;28.06;54.86
45813;BME280;31519;45.408;10.962;2023-07-13T05:21:12;100520.03;;;28.36;54.06
45813;BME280;31519;45.408;10.962;2023-07-13T05:23:40;100523.78;;;28.26;54.27
45813;BME280;31519;45.408;10.962;2023-07-13T05:26:12;100518.06;;;28.37;53.70
45813;BME280;31519;45.408;10.962;2023-07-13T05:28:40;100518.56;;;28.32;54.09
45813;BME280;31519;45.408;10.962;2023-07-13T05:31:10;100527.03;;;28.37;54.01
45813;BME280;31519;45.408;10.962;2023-07-13T05:33:39;100524.38;;;28.34;54.06
45813;BME280;31519;45.408;10.962;2023-07-13T05:36:08;100529.88;;;28.34;54.30
45813;BME280;31519;45.408;10.962;2023-07-13T05:38:36;100536.50;;;28.52;54.39
45813;BME280;31519;45.408;10.962;2023-07-13T05:41:05;100539.84;;;28.24;54.66
45813;BME280;31519;45.408;10.962;2023-07-13T05:43:34;100536.59;;;28.49;54.08
45813;BME280;31519;45.408;10.962;2023-07-13T05:46:05;100531.59;;;28.80;53.39
45813;BME280;31519;45.408;10.962;2023-07-13T05:48:34;100545.41;;;28.56;53.59
45813;BME280;31519;45.408;10.962;2023-07-13T05:51:03;100541.56;;;28.54;53.27
45813;BME280;31519;45.408;10.962;2023-07-13T05:53:31;100545.34;;;28.96;51.67
45813;BME280;31519;45.408;10.962;2023-07-13T05:56:00;100534.94;;;28.71;52.51
45813;BME280;31519;45.408;10.962;2023-07-13T05:58:29;100527.31;;;28.79;52.62
45813;BME280;31519;45.408;10.962;2023-07-13T06:01:02;100505.94;;;28.70;53.92
45813;BME280;31519;45.408;10.962;2023-07-13T06:03:32;100507.50;;;28.55;54.26
45813;BME280;31519;45.408;10.962;2023-07-13T06:06:01;100512.72;;;28.10;55.71
45813;BME280;31519;45.408;10.962;2023-07-13T06:08:32;100523.47;;;28.40;55.22
45813;BME280;31519;45.408;10.962;2023-07-13T06:11:05;100524.25;;;28.41;54.95
45813;BME280;31519;45.408;10.962;2023-07-13T06:13:34;100529.81;;;28.17;55.60
45813;BME280;31519;45.408;10.962;2023-07-13T06:16:03;100541.09;;;28.39;54.52
45813;BME280;31519;45.408;10.962;2023-07-13T06:18:35;100542.97;;;28.42;54.62
45813;BME280;31519;45.408;10.962;2023-07-13T06:21:11;100540.91;;;28.30;54.57
45813;BME280;31519;45.408;10.962;2023-07-13T06:23:40;100538.56;;;28.29;54.53
45813;BME280;31519;45.408;10.962;2023-07-13T06:26:09;100520.41;;;28.18;54.39
45813;BME280;31519;45.408;10.962;2023-07-13T06:28:38;100507.84;;;28.37;54.08
45813;BME280;31519;45.408;10.962;2023-07-13T06:31:09;100500.69;;;28.43;53.56
45813;BME280;31519;45.408;10.962;2023-07-13T06:33:38;100513.06;;;28.68;53.60
45813;BME280;31519;45.408;10.962;2023-07-13T06:36:08;100524.34;;;28.53;53.94
45813;BME280;31519;45.408;10.962;2023-07-13T06:38:37;100506.66;;;28.38;54.12
45813;BME280;31519;45.408;10.962;2023-07-13T06:41:07;100493.34;;;28.40;54.38
45813;BME280;31519;45.408;10.962;2023-07-13T06:43:36;100497.28;;;28.55;53.84
45813;BME280;31519;45.408;10.962;2023-07-13T06:46:05;100507.13;;;28.37;54.51
45813;BME280;31519;45.408;10.962;2023-07-13T06:48:34;100523.06;;;28.22;55.01
45813;BME280;31519;45.408;10.962;2023-07-13T06:51:03;100528.66;;;28.54;54.35
45813;BME280;31519;45.408;10.962;2023-07-13T06:53:31;100539.78;;;28.63;53.12
45813;BME280;31519;45.408;10.962;2023-07-13T06:56:00;100552.63;;;28.50;53.36
45813;BME280;31519;45.408;10.962;2023-07-13T06:58:29;100551.25;;;28.58;53.35
45813;BME280;31519;45.408;10.962;2023-07-13T07:00:58;100558.03;;;28.70;52.56
45813;BME280;31519;45.408;10.962;2023-07-13T07:03:26;100548.44;;;28.62;53.49
45813;BME280;31519;45.408;10.962;2023-07-13T07:06:18;100549.25;;;28.79;52.59
45813;BME280;31519;45.408;10.962;2023-07-13T07:08:44;100550.88;;;28.76;52.86
45813;BME280;31519;45.408;10.962;2023-07-13T07:11:17;100562.13;;;28.98;52.14
45813;BME280;31519;45.408;10.962;2023-07-13T07:13:46;100568.28;;;28.86;52.07
45813;BME280;31519;45.408;10.962;2023-07-13T07:16:15;100566.78;;;29.01;52.30
45813;BME280;31519;45.408;10.962;2023-07-13T07:18:43;100559.97;;;28.73;52.69
45813;BME280;31519;45.408;10.962;2023-07-13T07:21:13;100557.25;;;28.70;52.42
45813;BME280;31519;45.408;10.962;2023-07-13T07:24:06;100545.03;;;28.74;52.15
45813;BME280;31519;45.408;10.962;2023-07-13T07:26:36;100547.56;;;29.01;51.59
45813;BME280;31519;45.408;10.962;2023-07-13T07:29:24;100538.13;;;29.02;51.04
45813;BME280;31519;45.408;10.962;2023-07-13T07:31:58;100540.88;;;29.18;50.87
45813;BME280;31519;45.408;10.962;2023-07-13T07:34:30;100549.94;;;29.15;51.20
45813;BME280;31519;45.408;10.962;2023-07-13T07:36:59;100563.94;;;29.21;51.25
45813;BME280;31519;45.408;10.962;2023-07-13T07:39:31;100560.75;;;28.90;51.77
45813;BME280;31519;45.408;10.962;2023-07-13T07:42:00;100562.81;;;28.86;52.58
45813;BME280;31519;45.408;10.962;2023-07-13T07:44:30;100565.75;;;29.27;51.08
45813;BME280;31519;45.408;10.962;2023-07-13T07:46:59;100574.91;;;29.21;52.30
45813;BME280;31519;45.408;10.962;2023-07-13T07:49:27;100575.00;;;29.33;51.37
45813;BME280;31519;45.408;10.962;2023-07-13T07:51:56;100573.97;;;29.27;51.82
45813;BME280;31519;45.408;10.962;2023-07-13T07:54:24;100565.38;;;29.25;51.67
45813;BME280;31519;45.408;10.962;2023-07-13T07:57:13;100576.69;;;29.11;50.94
45813;BME280;31519;45.408;10.962;2023-07-13T08:00:02;100570.72;;;29.00;51.59
45813;BME280;31519;45.408;10.962;2023-07-13T08:02:41;100577.03;;;28.97;52.54
45813;BME280;31519;45.408;10.962;2023-07-13T08:05:29;100581.22;;;28.85;52.01
45813;BME280;31519;45.408;10.962;2023-07-13T08:08:01;100585.94;;;28.85;51.83
45813;BME280;31519;45.408;10.962;2023-07-13T08:10:30;100573.59;;;28.93;52.46
45813;BME280;31519;45.408;10.962;2023-07-13T08:12:59;100563.50;;;28.90;52.39
45813;BME280;31519;45.408;10.962;2023-07-13T08:15:30;100540.69;;;28.93;52.43
45813;BME280;31519;45.408;10.962;2023-07-13T08:17:59;100536.22;;;29.15;51.50
45813;BME280;31519;45.408;10.962;2023-07-13T08:20:27;100534.69;;;28.98;52.06
45813;BME280;31519;45.408;10.962;2023-07-13T08:22:57;100538.91;;;29.02;51.83
45813;BME280;31519;45.408;10.962;2023-07-13T08:25:26;100525.63;;;28.85;53.33
45813;BME280;31519;45.408;10.962;2023-07-13T08:27:54;100521.06;;;28.78;54.06
45813;BME280;31519;45.408;10.962;2023-07-13T08:30:23;100517.22;;;28.76;54.03
45813;BME280;31519;45.408;10.962;2023-07-13T08:32:52;100521.31;;;28.84;53.68
45813;BME280;31519;45.408;10.962;2023-07-13T08:35:21;100527.06;;;28.89;53.78
45813;BME280;31519;45.408;10.962;2023-07-13T08:37:50;100517.81;;;28.83;54.32
45813;BME280;31519;45.408;10.962;2023-07-13T08:40:18;100517.56;;;28.94;54.29
45813;BME280;31519;45.408;10.962;2023-07-13T08:42:55;100513.63;;;28.95;54.46
45813;BME280;31519;45.408;10.962;2023-07-13T08:45:44;100527.31;;;28.79;54.28
45813;BME280;31519;45.408;10.962;2023-07-13T08:48:17;100556.69;;;28.42;54.77
45813;BME280;31519;45.408;10.962;2023-07-13T08:50:51;100562.78;;;28.14;56.07
45813;BME280;31519;45.408;10.962;2023-07-13T08:53:42;100565.56;;;28.30;55.35
45813;BME280;31519;45.408;10.962;2023-07-13T08:56:16;100557.13;;;28.41;55.91
45813;BME280;31519;45.408;10.962;2023-07-13T08:58:47;100556.84;;;28.15;56.27
45813;BME280;31519;45.408;10.962;2023-07-13T09:02:07;100568.50;;;28.00;56.64
45813;BME280;31519;45.408;10.962;2023-07-13T10:07:17;100564.97;;;29.43;53.30
45813;BME280;31519;45.408;10.962;2023-07-13T10:09:58;100553.78;;;30.24;51.99
45813;BME280;31519;45.408;10.962;2023-07-13T10:12:29;100551.06;;;30.36;51.15
45813;BME280;31519;45.408;10.962;2023-07-13T10:14:58;100550.78;;;30.85;49.88
45813;BME280;31519;45.408;10.962;2023-07-13T10:17:48;100548.16;;;32.10;46.79
45813;BME280;31519;45.408;10.962;2023-07-13T10:20:18;100554.47;;;32.72;45.24
45813;BME280;31519;45.408;10.962;2023-07-13T10:22:54;100564.84;;;32.99;43.90
45813;BME280;31519;45.408;10.962;2023-07-13T10:25:24;100571.06;;;32.07;45.35
45813;BME280;31519;45.408;10.962;2023-07-13T10:27:53;100577.34;;;32.07;44.86
45813;BME280;31519;45.408;10.962;2023-07-13T10:30:26;100567.03;;;32.42;44.86
45813;BME280;31519;45.408;10.962;2023-07-13T10:32:58;100565.56;;;31.85;46.05
45813;BME280;31519;45.408;10.962;2023-07-13T10:35:28;100558.66;;;32.02;45.96
45813;BME280;31519;45.408;10.962;2023-07-13T10:38:00;100560.72;;;31.42;47.11
45813;BME280;31519;45.408;10.962;2023-07-13T10:40:42;100572.22;;;31.28;46.91
45813;BME280;31519;45.408;10.962;2023-07-13T10:43:20;100566.88;;;31.12;47.35
45813;BME280;31519;45.408;10.962;2023-07-13T10:45:52;100565.41;;;30.95;47.87
45813;BME280;31519;45.408;10.962;2023-07-13T10:48:22;100564.69;;;31.41;46.49
45813;BME280;31519;45.408;10.962;2023-07-13T10:50:52;100568.13;;;31.80;46.27
45813;BME280;31519;45.408;10.962;2023-07-13T10:53:33;100566.78;;;32.06;45.33
45813;BME280;31519;45.408;10.962;2023-07-13T10:56:03;100574.97;;;31.28;46.29
45813;BME280;31519;45.408;10.962;2023-07-13T10:58:36;100561.72;;;31.48;46.07
45813;BME280;31519;45.408;10.962;2023-07-13T11:03:34;100555.94;;;31.08;47.99
45813;BME280;31519;45.408;10.962;2023-07-13T11:06:13;100535.47;;;30.97;48.40
45813;BME280;31519;45.408;10.962;2023-07-13T11:14:00;100531.19;;;31.55;46.63
45813;BME280;31519;45.408;10.962;2023-07-13T11:16:43;100525.69;;;32.51;45.06
45813;BME280;31519;45.408;10.962;2023-07-13T11:24:33;100518.25;;;32.08;45.86
45813;BME280;31519;45.408;10.962;2023-07-13T11:27:38;100512.63;;;31.90;46.14
45813;BME280;31519;45.408;10.962;2023-07-13T11:30:08;100508.28;;;31.80;46.16
45813;BME280;31519;45.408;10.962;2023-07-13T11:32:42;100512.34;;;32.50;45.54
45813;BME280;31519;45.408;10.962;2023-07-13T11:35:14;100512.91;;;33.52;43.88
45813;BME280;31519;45.408;10.962;2023-07-13T11:37:48;100503.53;;;32.02;46.95
45813;BME280;31519;45.408;10.962;2023-07-13T11:40:16;100500.22;;;31.64;47.49
45813;BME280;31519;45.408;10.962;2023-07-13T11:42:44;100499.31;;;31.89;47.73
45813;BME280;31519;45.408;10.962;2023-07-13T11:45:21;100494.06;;;32.65;46.49
45813;BME280;31519;45.408;10.962;2023-07-13T11:48:16;100503.13;;;32.75;45.01
45813;BME280;31519;45.408;10.962;2023-07-13T11:50:49;100500.16;;;33.27;44.20
45813;BME280;31519;45.408;10.962;2023-07-13T11:53:18;100486.91;;;32.86;45.08
45813;BME280;31519;45.408;10.962;2023-07-13T11:55:46;100486.69;;;33.20;44.42
45813;BME280;31519;45.408;10.962;2023-07-13T11:58:17;100482.97;;;34.38;42.63
45813;BME280;31519;45.408;10.962;2023-07-13T12:00:48;100487.84;;;32.92;44.62
45813;BME280;31519;45.408;10.962;2023-07-13T12:03:18;100476.34;;;32.93;44.22
45813;BME280;31519;45.408;10.962;2023-07-13T12:06:03;100475.97;;;33.22;43.98
45813;BME280;31519;45.408;10.962;2023-07-13T12:08:38;100484.88;;;32.77;44.03
45813;BME280;31519;45.408;10.962;2023-07-13T12:11:13;100469.66;;;32.24;45.61
45813;BME280;31519;45.408;10.962;2023-07-13T12:13:43;100467.03;;;32.60;45.12
45813;BME280;31519;45.408;10.962;2023-07-13T12:16:15;100472.59;;;33.46;43.60
45813;BME280;31519;45.408;10.962;2023-07-13T12:18:44;100477.94;;;33.49;43.39
45813;BME280;31519;45.408;10.962;2023-07-13T12:21:14;100467.88;;;33.97;41.82
45813;BME280;31519;45.408;10.962;2023-07-13T12:23:44;100465.56;;;34.47;41.38
45813;BME280;31519;45.408;10.962;2023-07-13T12:26:12;100460.09;;;35.18;38.48
45813;BME280;31519;45.408;10.962;2023-07-13T12:29:16;100462.25;;;33.55;41.39
45813;BME280;31519;45.408;10.962;2023-07-13T12:31:36;100452.75;;;33.47;41.51
45813;BME280;31519;45.408;10.962;2023-07-13T12:34:08;100449.16;;;34.76;40.03
45813;BME280;31519;45.408;10.962;2023-07-13T12:36:49;100446.66;;;35.02;39.18
45813;BME280;31519;45.408;10.962;2023-07-13T12:39:23;100450.38;;;34.42;39.76
45813;BME280;31519;45.408;10.962;2023-07-13T12:41:51;100454.03;;;34.48;40.29
45813;BME280;31519;45.408;10.962;2023-07-13T12:44:31;100459.84;;;33.21;40.52
45813;BME280;31519;45.408;10.962;2023-07-13T12:47:04;100454.78;;;34.16;39.08
45813;BME280;31519;45.408;10.962;2023-07-13T12:49:33;100437.72;;;33.66;40.68
45813;BME280;31519;45.408;10.962;2023-07-13T12:52:03;100442.94;;;33.10;42.42
45813;BME280;31519;45.408;10.962;2023-07-13T12:54:32;100435.84;;;33.91;41.20
45813;BME280;31519;45.408;10.962;2023-07-13T12:57:00;100433.16;;;33.45;42.67
45813;BME280;31519;45.408;10.962;2023-07-13T12:59:31;100441.44;;;33.27;42.77
45813;BME280;31519;45.408;10.962;2023-07-13T13:02:00;100437.88;;;32.90;42.94
45813;BME280;31519;45.408;10.962;2023-07-13T13:04:30;100431.59;;;32.89;43.02
45813;BME280;31519;45.408;10.962;2023-07-13T13:07:03;100432.63;;;32.83;43.25
45813;BME280;31519;45.408;10.962;2023-07-13T13:09:32;100432.22;;;33.66;41.60
45813;BME280;31519;45.408;10.962;2023-07-13T13:12:00;100431.28;;;33.51;40.82
45813;BME280;31519;45.408;10.962;2023-07-13T13:14:29;100428.38;;;34.48;39.82
45813;BME280;31519;45.408;10.962;2023-07-13T13:16:57;100433.59;;;34.13;40.00
45813;BME280;31519;45.408;10.962;2023-07-13T13:19:27;100434.91;;;33.94;40.46
45813;BME280;31519;45.408;10.962;2023-07-13T13:21:55;100429.13;;;34.15;39.66
45813;BME280;31519;45.408;10.962;2023-07-13T13:24:26;100428.34;;;33.82;40.48
45813;BME280;31519;45.408;10.962;2023-07-13T13:26:55;100429.13;;;34.15;40.20
45813;BME280;31519;45.408;10.962;2023-07-13T13:29:27;100431.91;;;34.06;40.79
45813;BME280;31519;45.408;10.962;2023-07-13T13:31:55;100443.41;;;33.08;42.51
45813;BME280;31519;45.408;10.962;2023-07-13T13:34:24;100428.78;;;33.90;41.31
45813;BME280;31519;45.408;10.962;2023-07-13T13:36:53;100435.69;;;34.60;40.07
45813;BME280;31519;45.408;10.962;2023-07-13T13:39:31;100445.88;;;34.21;39.54
45813;BME280;31519;45.408;10.962;2023-07-13T13:42:00;100449.81;;;34.29;40.02
45813;BME280;31519;45.408;10.962;2023-07-13T13:44:28;100446.63;;;34.54;39.28
45813;BME280;31519;45.408;10.962;2023-07-13T13:46:56;100454.03;;;35.05;37.97
45813;BME280;31519;45.408;10.962;2023-07-13T13:49:26;100456.63;;;34.28;39.84
45813;BME280;31519;45.408;10.962;2023-07-13T13:51:54;100449.31;;;34.73;38.99
45813;BME280;31519;45.408;10.962;2023-07-13T13:54:23;100446.66;;;34.12;40.33
45813;BME280;31519;45.408;10.962;2023-07-13T13:56:53;100440.81;;;34.19;39.29
45813;BME280;31519;45.408;10.962;2023-07-13T13:59:21;100451.19;;;33.82;40.80
45813;BME280;31519;45.408;10.962;2023-07-13T14:01:49;100456.13;;;33.78;40.14
45813;BME280;31519;45.408;10.962;2023-07-13T14:04:18;100458.59;;;33.58;40.93
45813;BME280;31519;45.408;10.962;2023-07-13T14:06:47;100455.47;;;33.93;41.02
45813;BME280;31519;45.408;10.962;2023-07-13T14:09:16;100454.88;;;33.79;41.84
45813;BME280;31519;45.408;10.962;2023-07-13T14:11:46;100448.44;;;33.73;41.69
45813;BME280;31519;45.408;10.962;2023-07-13T14:14:21;100454.53;;;34.05;41.10
45813;BME280;31519;45.408;10.962;2023-07-13T14:16:50;100453.28;;;34.48;39.87